createdAt,value
2022-08-22T00:03:17.493Z,21.68
2022-08-22T00:06:01.932Z,21.60
2022-08-22T00:09:13.013Z,21.60
2022-08-22T00:12:37.997Z,21.53
2022-08-22T00:15:53.460Z,21.45
2022-08-22T00:19:11.095Z,21.44
2022-08-22T00:22:25.511Z,21.47
2022-08-22T00:25:46.920Z,21.47
2022-08-22T00:29:00.889Z,21.34
2022-08-22T00:32:28.200Z,21.32
2022-08-22T00:35:53.753Z,21.23
2022-08-22T00:39:04.144Z,21.30
2022-08-22T00:42:56.007Z,21.33
2022-08-22T00:46:28.955Z,21.30
2022-08-22T00:50:04.325Z,21.28
2022-08-22T00:53:57.199Z,21.26
2022-08-22T00:57:53.710Z,21.22
2022-08-22T01:01:04.248Z,21.11
2022-08-22T01:04:27.891Z,21.01
2022-08-22T01:08:24.695Z,21.09
2022-08-22T01:11:59.624Z,21.14
2022-08-22T01:15:20.314Z,21.07
2022-08-22T01:19:14.927Z,21.05
2022-08-22T01:22:49.037Z,20.96
2022-08-22T01:26:32.032Z,20.94
2022-08-22T01:29:58.518Z,20.87
2022-08-22T01:33:31.043Z,20.85
2022-08-22T01:37:04.086Z,20.89
2022-08-22T01:40:53.964Z,20.65
2022-08-22T01:44:23.540Z,20.68
2022-08-22T01:47:40.821Z,20.77
2022-08-22T01:51:13.063Z,20.89
2022-08-22T01:54:46.047Z,20.82
2022-08-22T01:58:12.631Z,20.79
2022-08-22T02:01:46.364Z,20.58
2022-08-22T02:04:57.400Z,20.60
2022-08-22T02:08:18.359Z,20.63
2022-08-22T02:11:46.203Z,20.62
2022-08-22T02:14:58.705Z,20.64
2022-08-22T02:18:25.668Z,20.66
2022-08-22T02:21:38.267Z,20.63
2022-08-22T02:25:23.993Z,20.55
2022-08-22T02:28:56.887Z,20.60
2022-08-22T02:32:15.265Z,20.57
2022-08-22T02:35:37.428Z,20.62
2022-08-22T02:39:11.254Z,20.60
2022-08-22T02:42:40.747Z,20.60
2022-08-22T02:45:55.538Z,20.62
2022-08-22T02:49:27.356Z,20.45
2022-08-22T02:52:58.932Z,20.64
2022-08-22T02:56:33.775Z,20.48
2022-08-22T03:00:31.484Z,20.70
2022-08-22T03:03:32.822Z,20.60
2022-08-22T03:06:54.587Z,20.60
2022-08-22T03:10:07.270Z,20.45
2022-08-22T03:13:29.027Z,20.65
2022-08-22T03:17:05.528Z,20.55
2022-08-22T03:20:16.738Z,20.58
2022-08-22T03:23:53.796Z,20.59
2022-08-22T03:27:32.355Z,20.71
2022-08-22T03:30:51.793Z,20.63
2022-08-22T03:33:58.500Z,20.65
2022-08-22T03:37:32.464Z,20.68
2022-08-22T03:41:08.824Z,20.61
2022-08-22T03:44:42.735Z,20.53
2022-08-22T03:48:29.686Z,20.73
2022-08-22T03:51:56.699Z,20.78
2022-08-22T03:55:36.485Z,20.63
2022-08-22T03:59:25.373Z,20.71
2022-08-22T04:03:05.488Z,20.55
2022-08-22T04:06:29.922Z,20.62
2022-08-22T04:10:13.584Z,20.69
2022-08-22T04:13:55.753Z,20.75
2022-08-22T04:17:21.358Z,20.85
2022-08-22T04:21:06.260Z,20.79
2022-08-22T04:24:52.083Z,20.86
2022-08-22T04:28:29.778Z,20.95
2022-08-22T04:31:45.474Z,21.04
2022-08-22T04:34:55.540Z,21.18
2022-08-22T04:38:38.452Z,21.21
2022-08-22T04:42:31.783Z,21.38
2022-08-22T04:45:36.703Z,21.42
2022-08-22T04:49:04.989Z,21.49
2022-08-22T04:52:20.442Z,21.62
2022-08-22T04:56:07.081Z,21.59
2022-08-22T04:59:23.709Z,21.71
2022-08-22T05:02:35.952Z,21.52
2022-08-22T05:05:47.073Z,21.59
2022-08-22T05:08:54.019Z,21.63
2022-08-22T05:11:59.882Z,21.76
2022-08-22T05:15:09.797Z,21.79
2022-08-22T05:18:25.543Z,21.91
2022-08-22T05:21:32.262Z,21.95
2022-08-22T05:24:46.855Z,21.97
2022-08-22T05:28:01.984Z,22.08
2022-08-22T05:31:07.308Z,22.05
2022-08-22T05:34:18.516Z,21.97
2022-08-22T05:37:36.998Z,22.00
2022-08-22T05:40:44.005Z,22.11
2022-08-22T05:43:55.351Z,22.21
2022-08-22T05:47:16.681Z,22.41
2022-08-22T05:50:29.587Z,22.35
2022-08-22T05:53:44.975Z,22.57
2022-08-22T05:56:54.524Z,22.68
2022-08-22T06:00:00.840Z,22.85
2022-08-22T06:03:35.485Z,22.84
2022-08-22T06:06:51.920Z,22.90
2022-08-22T06:10:15.728Z,22.81
2022-08-22T06:13:36.099Z,22.77
2022-08-22T06:16:53.730Z,22.59
2022-08-22T06:20:04.792Z,22.68
2022-08-22T06:23:13.460Z,22.80
2022-08-22T06:26:20.463Z,22.99
2022-08-22T06:29:27.305Z,22.93
2022-08-22T06:32:59.166Z,23.04
2022-08-22T06:36:24.266Z,22.83
2022-08-22T06:39:42.992Z,22.87
2022-08-22T06:42:50.646Z,22.95
2022-08-22T06:45:56.381Z,23.01
2022-08-22T06:49:02.088Z,22.96
2022-08-22T06:52:14.403Z,23.05
2022-08-22T06:55:22.254Z,23.19
2022-08-22T06:58:38.298Z,23.32
2022-08-22T07:02:04.237Z,23.45
2022-08-22T07:05:09.222Z,23.51
2022-08-22T07:08:16.696Z,23.26
2022-08-22T07:11:32.343Z,23.20
2022-08-22T07:14:50.415Z,23.33
2022-08-22T07:18:05.252Z,23.39
2022-08-22T07:21:14.813Z,23.39
2022-08-22T07:24:20.329Z,23.25
2022-08-22T07:27:38.069Z,23.38
2022-08-22T07:31:12.784Z,23.46
2022-08-22T07:35:00.489Z,23.57
2022-08-22T07:38:30.872Z,23.48
2022-08-22T07:41:38.547Z,23.54
2022-08-22T07:44:53.748Z,23.77
2022-08-22T07:48:08.305Z,23.95
2022-08-22T07:51:25.924Z,23.97
2022-08-22T07:54:48.748Z,23.64
2022-08-22T07:57:56.427Z,23.77
2022-08-22T08:01:01.977Z,23.69
2022-08-22T08:04:14.524Z,23.91
2022-08-22T08:07:22.793Z,24.03
2022-08-22T08:10:33.083Z,24.15
2022-08-22T08:13:51.517Z,24.38
2022-08-22T08:17:13.897Z,24.35
2022-08-22T08:20:27.000Z,24.39
2022-08-22T08:23:32.233Z,24.59
2022-08-22T08:26:51.643Z,24.76
2022-08-22T08:30:13.370Z,24.95
2022-08-22T08:33:25.972Z,24.88
2022-08-22T08:36:51.310Z,24.83
2022-08-22T08:40:05.086Z,24.72
2022-08-22T08:43:36.362Z,24.63
2022-08-22T08:47:22.249Z,24.58
2022-08-22T08:51:12.756Z,24.67
2022-08-22T08:54:53.825Z,24.58
2022-08-22T08:58:24.457Z,24.80
2022-08-22T09:01:37.920Z,24.83
2022-08-22T09:04:49.208Z,24.93
2022-08-22T09:08:22.326Z,25.21
2022-08-22T09:11:37.473Z,25.33
2022-08-22T09:15:27.414Z,25.43
2022-08-22T09:18:40.392Z,25.59
2022-08-22T09:22:14.460Z,25.76
2022-08-22T09:25:44.897Z,25.94
2022-08-22T09:29:09.256Z,25.88
2022-08-22T09:32:02.816Z,25.91
2022-08-22T09:35:35.033Z,26.10
2022-08-22T09:38:58.818Z,26.16
2022-08-22T09:42:27.298Z,26.13
2022-08-22T09:45:53.546Z,26.02
2022-08-22T09:49:33.525Z,25.97
2022-08-22T09:52:46.295Z,26.08
2022-08-22T09:56:15.002Z,26.40
2022-08-22T09:59:26.370Z,26.49
2022-08-22T10:02:52.221Z,26.61
2022-08-22T10:06:16.894Z,26.76
2022-08-22T10:09:35.250Z,26.78
2022-08-22T10:12:46.022Z,26.87
2022-08-22T10:16:01.437Z,26.76
2022-08-22T10:19:14.626Z,26.99
2022-08-22T10:22:55.618Z,27.15
2022-08-22T10:26:08.656Z,27.31
2022-08-22T10:29:42.996Z,27.26
2022-08-22T10:33:05.767Z,27.23
2022-08-22T10:36:34.305Z,27.10
2022-08-22T10:39:53.915Z,27.09
2022-08-22T10:43:07.038Z,27.12
2022-08-22T10:46:37.191Z,27.19
2022-08-22T10:50:10.978Z,27.52
2022-08-22T10:53:40.688Z,27.40
2022-08-22T10:57:21.986Z,27.43
2022-08-22T11:01:01.471Z,27.41
2022-08-22T11:04:34.816Z,27.49
2022-08-22T11:08:19.261Z,27.58
2022-08-22T11:11:48.876Z,27.71
2022-08-22T11:15:28.353Z,27.75
2022-08-22T11:19:02.714Z,27.86
2022-08-22T11:22:23.689Z,28.07
2022-08-22T11:26:01.237Z,28.27
2022-08-22T11:29:35.789Z,28.13
2022-08-22T11:33:46.542Z,28.33
2022-08-22T11:36:38.023Z,28.69
2022-08-22T11:40:05.843Z,29.03
2022-08-22T11:43:45.316Z,29.27
2022-08-22T11:47:03.351Z,29.64
2022-08-22T11:50:22.270Z,29.71
2022-08-22T11:53:55.318Z,29.90
2022-08-22T11:57:08.639Z,29.48
2022-08-22T12:00:45.412Z,29.37
2022-08-22T12:04:24.582Z,29.47
2022-08-22T12:07:53.679Z,29.33
2022-08-22T12:11:04.641Z,29.33
2022-08-22T12:14:40.628Z,29.26
2022-08-22T12:18:24.153Z,29.40
2022-08-22T12:21:57.126Z,29.28
2022-08-22T12:25:26.783Z,29.34
2022-08-22T12:29:05.063Z,29.36
2022-08-22T12:32:39.596Z,29.49
2022-08-22T12:36:21.152Z,30.01
2022-08-22T12:39:52.997Z,30.01
2022-08-22T12:43:14.310Z,29.73
2022-08-22T12:46:34.717Z,29.81
2022-08-22T12:50:05.206Z,29.78
2022-08-22T12:53:30.339Z,29.97
2022-08-22T12:56:58.619Z,29.97
2022-08-22T13:00:04.885Z,29.92
2022-08-22T13:03:09.730Z,29.96
2022-08-22T13:06:22.718Z,30.17
2022-08-22T13:09:44.065Z,30.11
2022-08-22T13:12:56.474Z,29.78
2022-08-22T13:16:09.526Z,29.92
2022-08-22T13:19:21.600Z,29.91
2022-08-22T13:22:32.228Z,30.10
2022-08-22T13:25:40.952Z,30.15
2022-08-22T13:28:47.931Z,30.27
2022-08-22T13:31:55.089Z,30.26
2022-08-22T13:35:04.091Z,30.54
2022-08-22T13:38:14.964Z,30.63
2022-08-22T13:41:20.498Z,30.31
2022-08-22T13:44:33.558Z,30.27
2022-08-22T13:47:39.944Z,30.35
2022-08-22T13:50:53.906Z,30.20
2022-08-22T13:54:11.241Z,30.34
2022-08-22T13:57:39.760Z,30.32
2022-08-22T14:01:11.717Z,30.19
2022-08-22T14:04:39.622Z,30.36
2022-08-22T14:08:12.703Z,30.40
2022-08-22T14:14:08.310Z,30.48
2022-08-22T14:17:13.774Z,30.69
2022-08-22T14:20:32.520Z,30.44
2022-08-22T14:23:42.282Z,30.55
2022-08-22T14:26:52.600Z,30.70
2022-08-22T14:30:08.332Z,30.56
2022-08-22T14:33:34.228Z,30.58
2022-08-22T14:36:44.475Z,30.59
2022-08-22T14:40:25.527Z,30.49
2022-08-22T14:43:45.944Z,30.57
2022-08-22T14:47:03.833Z,30.48
2022-08-22T14:50:09.365Z,30.28
2022-08-22T14:53:44.785Z,30.34
2022-08-22T14:56:50.471Z,30.36
2022-08-22T15:00:03.999Z,30.39
2022-08-22T15:03:14.820Z,30.08
2022-08-22T15:06:29.302Z,30.05
2022-08-22T15:09:57.144Z,29.93
2022-08-22T15:13:09.786Z,30.18
2022-08-22T15:16:15.862Z,29.70
2022-08-22T15:19:44.471Z,29.63
2022-08-22T15:22:52.248Z,29.39
2022-08-22T15:25:58.054Z,29.37
2022-08-22T15:29:25.518Z,29.37
2022-08-22T15:32:41.802Z,29.56
2022-08-22T15:35:46.783Z,29.08
2022-08-22T15:38:59.156Z,28.67
2022-08-22T15:42:06.104Z,28.67
2022-08-22T15:45:12.713Z,28.53
2022-08-22T15:48:26.012Z,28.45
2022-08-22T15:51:53.562Z,28.59
2022-08-22T15:55:13.013Z,28.58
2022-08-22T15:58:28.532Z,28.57
2022-08-22T16:01:37.907Z,28.59
2022-08-22T16:04:57.842Z,28.32
2022-08-22T16:08:21.525Z,28.27
2022-08-22T16:11:38.554Z,28.08
2022-08-22T16:14:56.913Z,27.94
2022-08-22T16:18:03.200Z,27.50
2022-08-22T16:21:09.237Z,27.41
2022-08-22T16:24:19.737Z,27.48
2022-08-22T16:27:36.253Z,27.40
2022-08-22T16:30:48.730Z,27.17
2022-08-22T16:33:56.098Z,26.97
2022-08-22T16:37:28.591Z,27.00
2022-08-22T16:40:38.990Z,26.98
2022-08-22T16:43:52.655Z,26.88
2022-08-22T16:46:55.191Z,26.72
2022-08-22T16:50:12.006Z,26.72
2022-08-22T16:53:46.159Z,26.60
2022-08-22T16:56:57.469Z,26.52
2022-08-22T17:00:22.864Z,26.50
2022-08-22T17:03:57.772Z,26.34
2022-08-22T17:07:32.144Z,26.50
2022-08-22T17:11:10.935Z,26.38
2022-08-22T17:14:48.737Z,26.44
2022-08-22T17:18:24.287Z,26.37
2022-08-22T17:21:51.665Z,26.21
2022-08-22T17:24:57.253Z,26.08
2022-08-22T17:28:07.796Z,26.05
2022-08-22T17:31:26.842Z,26.01
2022-08-22T17:35:12.771Z,25.64
2022-08-22T17:38:53.769Z,25.84
2022-08-22T17:42:29.055Z,25.82
2022-08-22T17:45:36.699Z,25.72
2022-08-22T17:49:09.233Z,25.58
2022-08-22T17:52:25.610Z,25.45
2022-08-22T17:55:37.708Z,25.80
2022-08-22T17:58:48.606Z,25.62
2022-08-22T18:02:18.218Z,25.79
2022-08-22T18:05:34.442Z,25.70
2022-08-22T18:12:05.651Z,25.82
2022-08-22T18:15:23.360Z,25.83
2022-08-22T18:18:42.421Z,25.90
2022-08-22T18:22:03.994Z,25.95
2022-08-22T18:25:36.461Z,25.90
2022-08-22T18:28:55.093Z,25.74
2022-08-22T18:32:25.473Z,25.86
2022-08-22T18:35:48.590Z,25.99
2022-08-22T18:39:10.233Z,25.69
2022-08-22T18:42:27.793Z,25.51
2022-08-22T18:45:44.185Z,25.80
2022-08-22T18:49:14.113Z,25.61
2022-08-22T18:52:25.278Z,25.53
2022-08-22T18:55:35.517Z,25.57
2022-08-22T18:59:06.426Z,25.42
2022-08-22T19:02:36.522Z,25.40
2022-08-22T19:06:21.020Z,25.36
2022-08-22T19:10:02.151Z,25.26
2022-08-22T19:13:48.797Z,25.22
2022-08-22T19:17:20.558Z,25.32
2022-08-22T19:21:03.713Z,25.14
2022-08-22T19:24:10.271Z,25.15
2022-08-22T19:27:37.851Z,25.08
2022-08-22T19:31:05.765Z,25.12
2022-08-22T19:34:46.939Z,25.11
2022-08-22T19:40:25.537Z,24.79
2022-08-22T19:43:53.398Z,25.20
2022-08-22T19:47:01.367Z,25.16
2022-08-22T19:50:13.670Z,25.09
2022-08-22T19:53:48.351Z,24.87
2022-08-22T19:57:20.138Z,24.87
2022-08-22T20:00:38.893Z,24.84
2022-08-22T20:04:11.402Z,24.70
2022-08-22T20:07:42.485Z,24.64
2022-08-22T20:11:35.083Z,24.58
2022-08-22T20:14:46.443Z,24.53
2022-08-22T20:21:14.246Z,24.71
2022-08-22T20:24:22.015Z,24.65
2022-08-22T20:27:34.936Z,24.63
2022-08-22T20:30:54.502Z,24.58
2022-08-22T20:34:02.212Z,24.53
2022-08-22T20:37:29.621Z,24.50
2022-08-22T20:40:57.084Z,24.57
2022-08-22T20:44:11.426Z,24.39
2022-08-22T20:47:36.186Z,24.39
2022-08-22T20:50:38.091Z,24.40
2022-08-22T20:53:43.764Z,24.07
2022-08-22T20:56:56.907Z,23.95
2022-08-22T21:00:08.387Z,24.06
2022-08-22T21:03:24.273Z,24.27
2022-08-22T21:06:32.404Z,24.33
2022-08-22T21:09:55.807Z,24.03
2022-08-22T21:13:35.193Z,24.35
2022-08-22T21:16:45.977Z,24.08
2022-08-22T21:19:44.347Z,24.43
2022-08-22T21:22:40.653Z,24.44
2022-08-22T21:25:39.448Z,24.26
2022-08-22T21:28:51.956Z,24.27
2022-08-22T21:32:07.484Z,24.41
2022-08-22T21:35:13.446Z,24.29
2022-08-22T21:38:18.715Z,24.34
2022-08-22T21:41:23.975Z,24.49
2022-08-22T21:44:51.947Z,24.61
2022-08-22T21:47:57.209Z,24.54
2022-08-22T21:51:03.929Z,24.43
2022-08-22T21:54:44.642Z,24.48
2022-08-22T21:57:49.582Z,24.46
2022-08-22T22:01:08.646Z,24.21
2022-08-22T22:04:15.909Z,24.03
2022-08-22T22:07:22.161Z,24.14
2022-08-22T22:10:32.001Z,24.20
2022-08-22T22:13:37.165Z,24.30
2022-08-22T22:16:42.464Z,24.13
2022-08-22T22:19:48.352Z,24.17
2022-08-22T22:22:54.073Z,24.27
2022-08-22T22:26:00.860Z,24.12
2022-08-22T22:29:06.660Z,23.94
2022-08-22T22:32:13.550Z,23.77
2022-08-22T22:35:20.641Z,23.95
2022-08-22T22:38:26.128Z,24.08
2022-08-22T22:41:32.373Z,23.72
2022-08-22T22:44:38.200Z,23.75
2022-08-22T22:47:46.085Z,23.74
2022-08-22T22:50:51.354Z,23.70
2022-08-22T22:53:57.549Z,23.77
2022-08-22T22:57:03.207Z,23.81
2022-08-22T23:00:09.659Z,23.76
2022-08-22T23:03:16.255Z,23.58
2022-08-22T23:06:29.065Z,23.40
2022-08-22T23:09:38.551Z,23.80
2022-08-22T23:12:41.370Z,23.70
2022-08-22T23:15:47.888Z,23.73
2022-08-22T23:18:54.621Z,23.91
2022-08-22T23:22:00.917Z,23.57
2022-08-22T23:25:07.411Z,23.51
2022-08-22T23:28:13.802Z,23.58
2022-08-22T23:31:34.959Z,23.55
2022-08-22T23:34:46.912Z,23.65
2022-08-22T23:37:52.424Z,23.67
2022-08-22T23:40:58.499Z,23.78
2022-08-22T23:44:06.013Z,23.73
2022-08-22T23:47:11.430Z,23.81
2022-08-22T23:50:17.008Z,23.89
2022-08-22T23:53:22.202Z,24.00
2022-08-22T23:56:31.185Z,24.19
2022-08-22T23:59:46.513Z,24.23
